Iron Mountain, MI (49801)

7:56 AM CST on January 31, 2015 (GMT -0600)
East Kingsford | Change Station
CLOSE
Current Station
Personal Weather Station
Location: Kingsford, MI
Elevation: 1112 ft
Nearby Weather Stations

Elev 1112 ft 45.79 °N, 88.05 °W | Updated 2 minutes ago

Overcast
Overcast
21.4 °F
Feels Like 16 °F
N
4.0
Wind Variable Wind from West
Gusts 6.0 mph

Today
High -- | Low -- °F
--% Chance of Precip.
Yesterday
High -- | Low -- °F
Precip. -- in
7:15 AM 4:56 PM
Waxing Gibbous, 89% visible
Pressure 30.17 in
Visibility 10.0 miles
Clouds Overcast 1600 ft
Windchill 16 °F
Dew Point 17 °F
Humidity 83%
Rainfall 0.00 in
Snow Depth Not available.
UV 0 out of 12
Pollen .10 out of 12
Air Quality Not available.
Flu Activity Not available.
METAR KIMT 311254Z AUTO 29006KT 10SM OVC016 M07/M11 A3009 RMK AO2 SLP214 T10671106

More Conditions Fewer Conditions

Pressure 30.17 in
Visibility 10.0 miles
Clouds Overcast 1600 ft
Windchill 16 °F
Dew Point 17 °F
Humidity 83%
Rainfall 0.00 in
Snow Depth Not available.
UV 0 out of 12
Pollen .10 out of 12
Air Quality Not available.
Flu Activity Not available.
METAR KIMT 311254Z AUTO 29006KT 10SM OVC016 M07/M11 A3009 RMK AO2 SLP214 T10671106

More Conditions Fewer Conditions

10-Day Weather Forecast

Almanac

Astronomy

Jan. 31, 2015 Rise Set
Actual Time
Civil Twilight
Nautical Twilight
Astronomical Twilight
Moon
Length of Visible Light
Length of Day
Tomorrow will be .
, % of the Moon is Illuminated

Today's Extremes

State Highs State Lows

Community

WunderPhotos

Upload Photos

1,792,048 photos uploaded!

WunderBlogs® & News

Nearby

Air Quality

  Air Quality AQ Index Pollutant
Not available.

Snow Depth

Station Depth Elevation

Earthquake Activity

City Distance Mag. Time & Date
Minimum magnitude displayed is 2.5.

Coastal Water Temperatures

Place Temperature

Nearby Weather Stations